首页
METAR-TAF:

METAR-TAF

机场 :

Leuchars, 苏格兰

纬度: 56-23N, 经度: 002-52W, 海拔: 12米

当前天气观测

该预报发布于21分钟前的05:50 UTC
风速2节,风向南转西南
温度 14°C
湿度 100%
气压 1003 hPa
能見度: 0600
阴天层高于200英尺

METAR: EGQL 230550Z 20002KT 0600 FG OVC002 14/14 Q1003 RED

时间: 07:11 (06:11 UTC)

预报

该预报发布于1小时和34分钟前的04:37 UTC
预报有效从23日的 06点(UTC)到 23日的 15点(UTC)
风速2节,风向多变
能見度: 0500
多云层低于100英尺
成为
从 23日的 06点(UTC)到 23日的 09点(UTC)
能见度10公里或以上
少量云层高于1500英尺
短暂存在
从 23日的 09点(UTC)到 23日的 12点(UTC)
散云层高于1800英尺

TAF: EGQL 230437Z 2306/2315 VRB02KT 0500 FG BKN000 BECMG 2306/2309 9999 NSW FEW015 TEMPO 2309/2312 SCT018

超过4000个机场的气象观测和天气预报(METAR&TAF报告)。

可查询的气象台以黄色和红色小点在地图上表示。

将鼠标移到小点上方,可查看气象台名称。

然后点击查看天气观测和预报。

如需切换地图:点击带黑十字的绿色按钮放大地图;点击带横线的绿色按钮缩小地图;或者点击绿色箭头查看邻近地区的地图。


METAR-TAF: